sensor_id;sensor_type;location;lat;lon;timestamp;pressure;altitude;pressure_sealevel;temperature;humidity
27840;BME280;15207;42.182;24.308;2023-04-07T00:01:48;99007.72;;;7.49;44.32
27840;BME280;15207;42.182;24.308;2023-04-07T00:04:13;99018.34;;;7.62;44.18
27840;BME280;15207;42.182;24.308;2023-04-07T00:06:39;99014.53;;;7.53;43.63
27840;BME280;15207;42.182;24.308;2023-04-07T00:09:05;99019.97;;;7.51;43.66
27840;BME280;15207;42.182;24.308;2023-04-07T00:11:30;99008.47;;;7.25;44.34
27840;BME280;15207;42.182;24.308;2023-04-07T00:13:56;99022.75;;;7.24;43.51
27840;BME280;15207;42.182;24.308;2023-04-07T00:16:21;99024.25;;;7.28;43.05
27840;BME280;15207;42.182;24.308;2023-04-07T00:18:47;99021.81;;;7.25;42.80
27840;BME280;15207;42.182;24.308;2023-04-07T00:21:12;99025.00;;;7.30;43.41
27840;BME280;15207;42.182;24.308;2023-04-07T00:23:38;99023.19;;;7.31;42.94
27840;BME280;15207;42.182;24.308;2023-04-07T00:26:04;99025.31;;;7.25;43.41
27840;BME280;15207;42.182;24.308;2023-04-07T00:28:29;99025.44;;;7.24;43.78
27840;BME280;15207;42.182;24.308;2023-04-07T00:30:55;99023.81;;;7.34;43.60
27840;BME280;15207;42.182;24.308;2023-04-07T00:33:20;99028.63;;;7.29;44.38
27840;BME280;15207;42.182;24.308;2023-04-07T00:35:46;99025.53;;;7.35;44.38
27840;BME280;15207;42.182;24.308;2023-04-07T00:38:11;99025.13;;;7.41;44.07
27840;BME280;15207;42.182;24.308;2023-04-07T00:40:37;99034.06;;;7.40;43.95
27840;BME280;15207;42.182;24.308;2023-04-07T00:43:02;99030.31;;;7.30;43.75
27840;BME280;15207;42.182;24.308;2023-04-07T00:45:28;99031.38;;;7.27;44.20
27840;BME280;15207;42.182;24.308;2023-04-07T00:47:58;99030.13;;;7.33;44.39
27840;BME280;15207;42.182;24.308;2023-04-07T00:50:23;99032.16;;;7.30;44.63
27840;BME280;15207;42.182;24.308;2023-04-07T00:52:49;99028.44;;;7.19;44.67
27840;BME280;15207;42.182;24.308;2023-04-07T00:55:15;99031.94;;;7.20;43.87
27840;BME280;15207;42.182;24.308;2023-04-07T00:57:40;99028.00;;;7.12;43.52
27840;BME280;15207;42.182;24.308;2023-04-07T01:00:07;99027.66;;;7.17;42.88
27840;BME280;15207;42.182;24.308;2023-04-07T01:02:39;99031.28;;;7.29;42.59
27840;BME280;15207;42.182;24.308;2023-04-07T01:05:12;99028.09;;;7.11;42.47
27840;BME280;15207;42.182;24.308;2023-04-07T01:10:18;99029.94;;;7.10;42.34
27840;BME280;15207;42.182;24.308;2023-04-07T01:15:21;99022.66;;;6.86;43.15
27840;BME280;15207;42.182;24.308;2023-04-07T01:17:54;99024.91;;;7.06;43.29
27840;BME280;15207;42.182;24.308;2023-04-07T01:20:22;99031.63;;;6.98;43.13
27840;BME280;15207;42.182;24.308;2023-04-07T01:22:53;99031.72;;;6.97;43.68
27840;BME280;15207;42.182;24.308;2023-04-07T01:31:00;99033.63;;;7.08;43.45
27840;BME280;15207;42.182;24.308;2023-04-07T01:33:28;99027.88;;;7.01;44.17
27840;BME280;15207;42.182;24.308;2023-04-07T01:35:57;99029.69;;;7.00;44.34
27840;BME280;15207;42.182;24.308;2023-04-07T01:38:24;99026.94;;;7.02;44.37
27840;BME280;15207;42.182;24.308;2023-04-07T01:40:52;99034.59;;;7.07;44.50
27840;BME280;15207;42.182;24.308;2023-04-07T01:43:19;99029.06;;;6.97;43.84
27840;BME280;15207;42.182;24.308;2023-04-07T01:45:46;99032.34;;;6.87;44.11
27840;BME280;15207;42.182;24.308;2023-04-07T01:48:12;99033.84;;;6.92;44.48
27840;BME280;15207;42.182;24.308;2023-04-07T01:50:38;99029.88;;;6.84;43.93
27840;BME280;15207;42.182;24.308;2023-04-07T01:53:03;99032.88;;;6.80;43.97
27840;BME280;15207;42.182;24.308;2023-04-07T01:55:29;99035.09;;;6.86;44.50
27840;BME280;15207;42.182;24.308;2023-04-07T01:57:55;99036.50;;;6.92;43.98
27840;BME280;15207;42.182;24.308;2023-04-07T02:00:20;99036.81;;;7.00;44.28
27840;BME280;15207;42.182;24.308;2023-04-07T02:02:48;99032.97;;;7.04;44.04
27840;BME280;15207;42.182;24.308;2023-04-07T02:05:18;99035.66;;;7.04;44.25
27840;BME280;15207;42.182;24.308;2023-04-07T02:07:50;99041.59;;;6.95;44.30
27840;BME280;15207;42.182;24.308;2023-04-07T02:10:20;99043.88;;;7.01;44.33
27840;BME280;15207;42.182;24.308;2023-04-07T02:12:47;99046.09;;;6.94;44.33
27840;BME280;15207;42.182;24.308;2023-04-07T02:15:14;99042.66;;;6.79;44.65
27840;BME280;15207;42.182;24.308;2023-04-07T02:17:41;99040.50;;;6.71;46.02
27840;BME280;15207;42.182;24.308;2023-04-07T02:20:09;99041.47;;;6.70;45.58
27840;BME280;15207;42.182;24.308;2023-04-07T02:22:37;99043.25;;;6.70;45.89
27840;BME280;15207;42.182;24.308;2023-04-07T02:25:29;99042.44;;;6.69;45.83
27840;BME280;15207;42.182;24.308;2023-04-07T02:27:56;99041.66;;;6.67;45.65
27840;BME280;15207;42.182;24.308;2023-04-07T02:30:22;99041.03;;;6.77;45.76
27840;BME280;15207;42.182;24.308;2023-04-07T02:32:48;99039.13;;;6.66;46.49
27840;BME280;15207;42.182;24.308;2023-04-07T02:35:14;99035.41;;;6.68;46.36
27840;BME280;15207;42.182;24.308;2023-04-07T02:37:41;99027.28;;;6.70;46.05
27840;BME280;15207;42.182;24.308;2023-04-07T02:40:07;99018.84;;;6.50;46.96
27840;BME280;15207;42.182;24.308;2023-04-07T02:42:33;99029.94;;;6.57;46.95
27840;BME280;15207;42.182;24.308;2023-04-07T02:44:58;99037.38;;;6.52;46.32
27840;BME280;15207;42.182;24.308;2023-04-07T02:47:24;99034.50;;;6.55;46.07
27840;BME280;15207;42.182;24.308;2023-04-07T02:49:50;99039.41;;;6.61;46.31
27840;BME280;15207;42.182;24.308;2023-04-07T02:52:15;99039.44;;;6.74;46.08
27840;BME280;15207;42.182;24.308;2023-04-07T02:54:41;99033.16;;;6.75;46.51
27840;BME280;15207;42.182;24.308;2023-04-07T02:57:07;99038.34;;;6.64;46.58
27840;BME280;15207;42.182;24.308;2023-04-07T02:59:32;99036.34;;;6.67;46.03
27840;BME280;15207;42.182;24.308;2023-04-07T03:01:58;99042.53;;;6.68;47.00
27840;BME280;15207;42.182;24.308;2023-04-07T03:04:23;99041.47;;;6.70;46.78
27840;BME280;15207;42.182;24.308;2023-04-07T03:06:49;99034.19;;;6.59;46.91
27840;BME280;15207;42.182;24.308;2023-04-07T03:09:14;99043.56;;;6.52;47.46
27840;BME280;15207;42.182;24.308;2023-04-07T03:11:40;99050.28;;;6.58;46.43
27840;BME280;15207;42.182;24.308;2023-04-07T03:14:08;99047.50;;;6.59;46.09
27840;BME280;15207;42.182;24.308;2023-04-07T03:16:34;99048.09;;;6.50;46.40
27840;BME280;15207;42.182;24.308;2023-04-07T03:18:59;99039.84;;;6.55;46.77
27840;BME280;15207;42.182;24.308;2023-04-07T03:21:24;99039.56;;;6.45;47.16
27840;BME280;15207;42.182;24.308;2023-04-07T03:23:50;99045.66;;;6.47;47.07
27840;BME280;15207;42.182;24.308;2023-04-07T03:26:16;99042.38;;;6.43;47.72
27840;BME280;15207;42.182;24.308;2023-04-07T03:28:41;99045.81;;;6.31;47.70
27840;BME280;15207;42.182;24.308;2023-04-07T03:31:07;99045.56;;;6.21;47.58
27840;BME280;15207;42.182;24.308;2023-04-07T03:33:33;99052.03;;;6.17;47.63
27840;BME280;15207;42.182;24.308;2023-04-07T03:35:59;99051.44;;;6.26;48.02
27840;BME280;15207;42.182;24.308;2023-04-07T03:38:25;99052.69;;;6.20;47.85
27840;BME280;15207;42.182;24.308;2023-04-07T03:40:50;99052.84;;;6.32;47.98
27840;BME280;15207;42.182;24.308;2023-04-07T03:43:16;99054.94;;;6.27;47.46
27840;BME280;15207;42.182;24.308;2023-04-07T03:45:42;99054.94;;;6.27;47.98
27840;BME280;15207;42.182;24.308;2023-04-07T03:48:07;99059.22;;;6.29;47.67
27840;BME280;15207;42.182;24.308;2023-04-07T03:50:37;99064.44;;;6.31;47.84
27840;BME280;15207;42.182;24.308;2023-04-07T03:53:03;99062.19;;;6.25;48.12
27840;BME280;15207;42.182;24.308;2023-04-07T03:55:29;99067.88;;;6.33;47.63
27840;BME280;15207;42.182;24.308;2023-04-07T03:57:55;99059.50;;;6.25;47.82
27840;BME280;15207;42.182;24.308;2023-04-07T04:00:21;99055.81;;;6.27;47.62
27840;BME280;15207;42.182;24.308;2023-04-07T04:02:46;99058.56;;;6.26;47.91
27840;BME280;15207;42.182;24.308;2023-04-07T04:05:12;99062.78;;;6.15;47.36
27840;BME280;15207;42.182;24.308;2023-04-07T04:07:38;99060.41;;;6.11;47.51
27840;BME280;15207;42.182;24.308;2023-04-07T04:10:04;99065.53;;;6.14;47.61
27840;BME280;15207;42.182;24.308;2023-04-07T04:12:30;99058.00;;;6.20;47.47
27840;BME280;15207;42.182;24.308;2023-04-07T04:14:55;99068.47;;;6.24;47.37
27840;BME280;15207;42.182;24.308;2023-04-07T04:17:21;99063.97;;;6.24;47.34
27840;BME280;15207;42.182;24.308;2023-04-07T04:19:46;99077.50;;;6.21;47.33
27840;BME280;15207;42.182;24.308;2023-04-07T04:22:12;99074.84;;;6.06;47.58
27840;BME280;15207;42.182;24.308;2023-04-07T04:24:37;99075.31;;;5.99;48.02
27840;BME280;15207;42.182;24.308;2023-04-07T04:27:03;99078.16;;;5.95;48.26
27840;BME280;15207;42.182;24.308;2023-04-07T04:29:28;99075.41;;;5.97;49.50
27840;BME280;15207;42.182;24.308;2023-04-07T04:31:54;99085.75;;;5.87;48.88
27840;BME280;15207;42.182;24.308;2023-04-07T04:34:19;99079.69;;;5.85;49.31
27840;BME280;15207;42.182;24.308;2023-04-07T04:36:45;99082.16;;;5.88;49.50
27840;BME280;15207;42.182;24.308;2023-04-07T04:39:13;99086.16;;;5.81;49.67
27840;BME280;15207;42.182;24.308;2023-04-07T04:41:38;99087.84;;;5.96;49.37
27840;BME280;15207;42.182;24.308;2023-04-07T04:44:04;99093.06;;;6.13;49.08
27840;BME280;15207;42.182;24.308;2023-04-07T04:46:29;99091.00;;;6.03;48.69
27840;BME280;15207;42.182;24.308;2023-04-07T04:48:56;99085.00;;;6.14;48.58
27840;BME280;15207;42.182;24.308;2023-04-07T04:51:22;99097.72;;;6.24;47.91
27840;BME280;15207;42.182;24.308;2023-04-07T04:53:48;99101.03;;;6.27;48.31
27840;BME280;15207;42.182;24.308;2023-04-07T04:56:13;99095.56;;;6.43;47.74
27840;BME280;15207;42.182;24.308;2023-04-07T04:58:39;99095.06;;;6.51;48.03
27840;BME280;15207;42.182;24.308;2023-04-07T05:01:13;99102.31;;;6.62;47.70
27840;BME280;15207;42.182;24.308;2023-04-07T05:03:38;99105.88;;;6.75;47.72
27840;BME280;15207;42.182;24.308;2023-04-07T05:06:04;99107.19;;;6.83;47.09
27840;BME280;15207;42.182;24.308;2023-04-07T05:08:30;99099.31;;;6.81;46.70
27840;BME280;15207;42.182;24.308;2023-04-07T05:10:56;99111.69;;;6.95;46.57
27840;BME280;15207;42.182;24.308;2023-04-07T05:13:21;99116.66;;;6.87;47.53
27840;BME280;15207;42.182;24.308;2023-04-07T05:15:47;99109.63;;;6.86;47.58
27840;BME280;15207;42.182;24.308;2023-04-07T05:18:12;99111.88;;;6.92;47.63
27840;BME280;15207;42.182;24.308;2023-04-07T05:20:38;99118.00;;;7.07;47.01
27840;BME280;15207;42.182;24.308;2023-04-07T05:23:04;99112.25;;;7.13;46.49
27840;BME280;15207;42.182;24.308;2023-04-07T05:25:29;99125.38;;;7.17;46.12
27840;BME280;15207;42.182;24.308;2023-04-07T05:27:57;99121.66;;;7.32;45.52
27840;BME280;15207;42.182;24.308;2023-04-07T05:30:22;99123.59;;;7.43;44.98
27840;BME280;15207;42.182;24.308;2023-04-07T05:32:48;99128.16;;;7.41;44.22
27840;BME280;15207;42.182;24.308;2023-04-07T05:35:13;99121.56;;;7.47;43.48
27840;BME280;15207;42.182;24.308;2023-04-07T05:37:39;99129.22;;;7.64;43.44
27840;BME280;15207;42.182;24.308;2023-04-07T05:40:06;99130.53;;;7.59;43.76
27840;BME280;15207;42.182;24.308;2023-04-07T05:42:32;99130.28;;;7.62;42.92
27840;BME280;15207;42.182;24.308;2023-04-07T05:44:57;99124.13;;;7.74;41.93
27840;BME280;15207;42.182;24.308;2023-04-07T05:47:23;99126.69;;;7.76;41.98
27840;BME280;15207;42.182;24.308;2023-04-07T05:49:48;99118.78;;;7.74;41.18
27840;BME280;15207;42.182;24.308;2023-04-07T05:52:14;99119.94;;;7.83;41.76
27840;BME280;15207;42.182;24.308;2023-04-07T05:54:39;99127.50;;;7.89;42.42
27840;BME280;15207;42.182;24.308;2023-04-07T05:57:05;99129.09;;;7.92;41.12
27840;BME280;15207;42.182;24.308;2023-04-07T05:59:32;99129.88;;;7.94;41.03
27840;BME280;15207;42.182;24.308;2023-04-07T06:01:57;99124.69;;;8.17;40.92
27840;BME280;15207;42.182;24.308;2023-04-07T06:04:23;99128.25;;;8.42;40.57
27840;BME280;15207;42.182;24.308;2023-04-07T06:06:48;99121.00;;;8.44;40.17
27840;BME280;15207;42.182;24.308;2023-04-07T06:09:14;99129.72;;;8.46;40.24
27840;BME280;15207;42.182;24.308;2023-04-07T06:11:40;99123.09;;;8.52;40.51
27840;BME280;15207;42.182;24.308;2023-04-07T06:14:05;99133.47;;;8.56;39.56
27840;BME280;15207;42.182;24.308;2023-04-07T06:16:31;99129.09;;;8.55;39.09
27840;BME280;15207;42.182;24.308;2023-04-07T06:18:56;99131.13;;;8.76;38.59
27840;BME280;15207;42.182;24.308;2023-04-07T06:21:22;99133.13;;;8.85;39.27
27840;BME280;15207;42.182;24.308;2023-04-07T06:23:47;99131.25;;;8.99;39.84
27840;BME280;15207;42.182;24.308;2023-04-07T06:26:13;99131.03;;;9.13;38.40
27840;BME280;15207;42.182;24.308;2023-04-07T06:28:39;99132.56;;;9.41;37.64
27840;BME280;15207;42.182;24.308;2023-04-07T06:31:05;99133.84;;;9.59;36.77
27840;BME280;15207;42.182;24.308;2023-04-07T06:33:31;99130.56;;;9.90;36.58
27840;BME280;15207;42.182;24.308;2023-04-07T06:35:56;99128.47;;;9.93;35.33
27840;BME280;15207;42.182;24.308;2023-04-07T06:38:22;99131.88;;;10.30;35.20
27840;BME280;15207;42.182;24.308;2023-04-07T06:40:50;99135.41;;;10.42;35.03
27840;BME280;15207;42.182;24.308;2023-04-07T06:43:16;99129.53;;;10.60;34.38
27840;BME280;15207;42.182;24.308;2023-04-07T06:45:41;99128.31;;;10.64;34.42
27840;BME280;15207;42.182;24.308;2023-04-07T06:48:07;99139.84;;;10.76;33.83
27840;BME280;15207;42.182;24.308;2023-04-07T06:50:35;99139.63;;;10.67;33.88
27840;BME280;15207;42.182;24.308;2023-04-07T06:53:01;99136.69;;;10.70;33.85
27840;BME280;15207;42.182;24.308;2023-04-07T06:55:27;99132.53;;;10.78;34.40
27840;BME280;15207;42.182;24.308;2023-04-07T06:57:52;99132.63;;;10.76;33.75
27840;BME280;15207;42.182;24.308;2023-04-07T07:00:18;99133.44;;;10.67;34.51
27840;BME280;15207;42.182;24.308;2023-04-07T07:02:44;99138.16;;;10.75;35.49
27840;BME280;15207;42.182;24.308;2023-04-07T07:05:09;99124.59;;;10.76;34.82
27840;BME280;15207;42.182;24.308;2023-04-07T07:07:36;99135.47;;;10.75;35.28
27840;BME280;15207;42.182;24.308;2023-04-07T07:10:02;99138.28;;;10.73;35.09
27840;BME280;15207;42.182;24.308;2023-04-07T07:12:28;99131.53;;;10.90;33.84
27840;BME280;15207;42.182;24.308;2023-04-07T07:14:54;99132.31;;;11.02;33.86
27840;BME280;15207;42.182;24.308;2023-04-07T07:17:19;99137.28;;;11.07;33.72
27840;BME280;15207;42.182;24.308;2023-04-07T07:19:45;99134.16;;;11.23;32.91
27840;BME280;15207;42.182;24.308;2023-04-07T07:22:10;99133.13;;;11.35;33.52
27840;BME280;15207;42.182;24.308;2023-04-07T07:24:36;99125.53;;;11.41;33.67
27840;BME280;15207;42.182;24.308;2023-04-07T07:27:02;99132.50;;;11.74;33.27
27840;BME280;15207;42.182;24.308;2023-04-07T07:29:27;99130.09;;;12.02;32.48
27840;BME280;15207;42.182;24.308;2023-04-07T07:31:53;99128.13;;;12.36;32.08
27840;BME280;15207;42.182;24.308;2023-04-07T07:34:18;99121.66;;;12.58;32.04
27840;BME280;15207;42.182;24.308;2023-04-07T07:36:44;99121.25;;;13.02;31.02
27840;BME280;15207;42.182;24.308;2023-04-07T07:39:10;99126.78;;;13.01;30.74
27840;BME280;15207;42.182;24.308;2023-04-07T07:41:35;99124.78;;;12.73;30.33
27840;BME280;15207;42.182;24.308;2023-04-07T07:44:01;99126.59;;;12.63;30.73
27840;BME280;15207;42.182;24.308;2023-04-07T07:46:26;99122.25;;;12.91;29.71
27840;BME280;15207;42.182;24.308;2023-04-07T07:48:52;99121.06;;;12.54;31.14
27840;BME280;15207;42.182;24.308;2023-04-07T07:51:17;99116.28;;;13.17;31.46
27840;BME280;15207;42.182;24.308;2023-04-07T07:53:43;99121.38;;;13.60;29.82
27840;BME280;15207;42.182;24.308;2023-04-07T07:56:09;99115.94;;;13.80;30.21
27840;BME280;15207;42.182;24.308;2023-04-07T07:58:35;99116.66;;;14.10;29.31
27840;BME280;15207;42.182;24.308;2023-04-07T08:01:00;99103.94;;;14.02;28.17
27840;BME280;15207;42.182;24.308;2023-04-07T08:03:26;99103.53;;;13.97;28.59
27840;BME280;15207;42.182;24.308;2023-04-07T08:05:52;99112.78;;;13.84;27.32
27840;BME280;15207;42.182;24.308;2023-04-07T08:08:17;99098.19;;;13.87;27.85
27840;BME280;15207;42.182;24.308;2023-04-07T08:10:43;99108.13;;;13.86;28.17
27840;BME280;15207;42.182;24.308;2023-04-07T08:13:09;99102.94;;;13.65;28.28
27840;BME280;15207;42.182;24.308;2023-04-07T08:15:34;99100.16;;;13.47;27.63
27840;BME280;15207;42.182;24.308;2023-04-07T08:18:00;99100.31;;;13.93;28.45
27840;BME280;15207;42.182;24.308;2023-04-07T08:20:29;99091.97;;;14.14;27.99
27840;BME280;15207;42.182;24.308;2023-04-07T08:22:54;99090.16;;;14.05;26.94
27840;BME280;15207;42.182;24.308;2023-04-07T08:25:20;99092.84;;;14.05;27.15
27840;BME280;15207;42.182;24.308;2023-04-07T08:27:46;99094.97;;;14.11;nan
27840;BME280;15207;42.182;24.308;2023-04-07T08:30:11;99085.09;;;14.02;27.65
27840;BME280;15207;42.182;24.308;2023-04-07T08:32:42;99083.16;;;14.40;28.47
27840;BME280;15207;42.182;24.308;2023-04-07T08:35:08;99080.06;;;14.81;27.19
27840;BME280;15207;42.182;24.308;2023-04-07T08:37:35;99076.97;;;14.94;26.97
27840;BME280;15207;42.182;24.308;2023-04-07T08:40:02;99077.63;;;14.60;26.77
27840;BME280;15207;42.182;24.308;2023-04-07T08:42:30;99077.25;;;14.55;27.34
27840;BME280;15207;42.182;24.308;2023-04-07T08:45:08;99085.41;;;14.45;26.91
27840;BME280;15207;42.182;24.308;2023-04-07T08:47:34;99082.72;;;14.45;27.05
27840;BME280;15207;42.182;24.308;2023-04-07T08:50:08;99077.59;;;14.24;27.26
27840;BME280;15207;42.182;24.308;2023-04-07T08:52:40;99066.47;;;14.37;27.24
27840;BME280;15207;42.182;24.308;2023-04-07T08:55:09;99074.31;;;14.48;27.76
27840;BME280;15207;42.182;24.308;2023-04-07T08:57:36;99081.22;;;14.33;27.45
27840;BME280;15207;42.182;24.308;2023-04-07T09:00:02;99069.97;;;14.19;27.25
27840;BME280;15207;42.182;24.308;2023-04-07T09:02:34;99078.06;;;14.19;27.27
27840;BME280;15207;42.182;24.308;2023-04-07T09:05:02;99078.81;;;14.11;28.09
27840;BME280;15207;42.182;24.308;2023-04-07T09:07:30;99076.41;;;14.36;28.74
27840;BME280;15207;42.182;24.308;2023-04-07T09:09:55;99071.94;;;14.45;28.27
27840;BME280;15207;42.182;24.308;2023-04-07T09:12:21;99063.47;;;14.40;29.03
27840;BME280;15207;42.182;24.308;2023-04-07T09:14:47;99074.38;;;14.20;28.39
27840;BME280;15207;42.182;24.308;2023-04-07T09:17:12;99068.31;;;14.36;28.96
27840;BME280;15207;42.182;24.308;2023-04-07T09:19:38;99062.94;;;14.36;27.64
27840;BME280;15207;42.182;24.308;2023-04-07T09:22:04;99063.50;;;14.12;28.66
27840;BME280;15207;42.182;24.308;2023-04-07T09:24:29;99062.44;;;14.23;28.86
27840;BME280;15207;42.182;24.308;2023-04-07T09:27:17;99059.00;;;14.31;28.71
27840;BME280;15207;42.182;24.308;2023-04-07T09:29:45;99063.69;;;14.00;27.71
27840;BME280;15207;42.182;24.308;2023-04-07T09:32:11;99057.22;;;13.93;28.40
27840;BME280;15207;42.182;24.308;2023-04-07T09:34:40;99057.47;;;14.00;28.40
27840;BME280;15207;42.182;24.308;2023-04-07T09:37:06;99048.59;;;14.36;27.85
27840;BME280;15207;42.182;24.308;2023-04-07T09:39:48;99060.56;;;13.77;28.44
27840;BME280;15207;42.182;24.308;2023-04-07T09:42:14;99056.84;;;13.78;28.89
27840;BME280;15207;42.182;24.308;2023-04-07T09:44:39;99060.28;;;13.70;29.25
27840;BME280;15207;42.182;24.308;2023-04-07T09:47:06;99059.28;;;13.71;29.67
27840;BME280;15207;42.182;24.308;2023-04-07T09:49:31;99060.38;;;14.17;28.97
27840;BME280;15207;42.182;24.308;2023-04-07T09:51:59;99061.22;;;14.35;29.42
27840;BME280;15207;42.182;24.308;2023-04-07T09:56:59;99066.75;;;14.80;27.97
27840;BME280;15207;42.182;24.308;2023-04-07T09:59:27;99073.97;;;14.98;27.40
27840;BME280;15207;42.182;24.308;2023-04-07T10:01:54;99073.44;;;15.12;28.26
27840;BME280;15207;42.182;24.308;2023-04-07T10:04:20;99065.38;;;14.94;27.76
27840;BME280;15207;42.182;24.308;2023-04-07T10:06:46;99059.31;;;14.46;27.84
27840;BME280;15207;42.182;24.308;2023-04-07T10:09:12;99064.22;;;14.32;28.48
27840;BME280;15207;42.182;24.308;2023-04-07T10:11:39;99061.94;;;14.55;28.29
27840;BME280;15207;42.182;24.308;2023-04-07T10:14:06;99055.13;;;14.79;28.96
27840;BME280;15207;42.182;24.308;2023-04-07T10:16:32;99052.53;;;15.14;28.23
27840;BME280;15207;42.182;24.308;2023-04-07T10:18:57;99053.50;;;15.58;27.87
27840;BME280;15207;42.182;24.308;2023-04-07T10:21:23;99040.94;;;15.22;28.25
27840;BME280;15207;42.182;24.308;2023-04-07T10:24:07;99039.41;;;15.19;27.71
27840;BME280;15207;42.182;24.308;2023-04-07T10:26:55;99034.25;;;15.26;28.85
27840;BME280;15207;42.182;24.308;2023-04-07T10:29:23;99044.69;;;15.56;27.92
27840;BME280;15207;42.182;24.308;2023-04-07T10:31:50;99041.28;;;15.01;27.28
27840;BME280;15207;42.182;24.308;2023-04-07T10:34:17;99040.38;;;14.92;27.57
27840;BME280;15207;42.182;24.308;2023-04-07T10:37:12;99036.84;;;14.55;28.38
27840;BME280;15207;42.182;24.308;2023-04-07T10:39:39;99030.38;;;14.66;28.94
27840;BME280;15207;42.182;24.308;2023-04-07T10:42:05;99034.97;;;14.19;28.52
27840;BME280;15207;42.182;24.308;2023-04-07T10:47:05;99028.72;;;14.19;28.90
27840;BME280;15207;42.182;24.308;2023-04-07T10:49:32;99030.47;;;14.74;29.14
27840;BME280;15207;42.182;24.308;2023-04-07T10:54:37;99026.63;;;15.22;28.21
27840;BME280;15207;42.182;24.308;2023-04-07T10:57:09;99020.97;;;15.33;28.16
27840;BME280;15207;42.182;24.308;2023-04-07T10:59:41;99014.84;;;15.57;27.40
27840;BME280;15207;42.182;24.308;2023-04-07T11:04:44;99020.50;;;15.72;27.72
27840;BME280;15207;42.182;24.308;2023-04-07T11:07:10;99027.88;;;15.09;27.75
27840;BME280;15207;42.182;24.308;2023-04-07T11:09:36;99016.63;;;15.40;28.12
27840;BME280;15207;42.182;24.308;2023-04-07T11:12:02;99023.66;;;15.59;27.69
27840;BME280;15207;42.182;24.308;2023-04-07T11:14:30;99023.66;;;15.33;28.10
27840;BME280;15207;42.182;24.308;2023-04-07T11:16:56;99009.28;;;15.24;27.54
27840;BME280;15207;42.182;24.308;2023-04-07T11:19:22;99018.44;;;15.66;28.08
27840;BME280;15207;42.182;24.308;2023-04-07T11:21:48;99010.03;;;16.04;28.38
27840;BME280;15207;42.182;24.308;2023-04-07T11:24:36;99014.97;;;16.17;27.72
27840;BME280;15207;42.182;24.308;2023-04-07T11:27:04;99015.59;;;16.03;27.43
27840;BME280;15207;42.182;24.308;2023-04-07T11:29:32;99011.09;;;15.85;27.87
27840;BME280;15207;42.182;24.308;2023-04-07T11:32:00;99005.84;;;15.83;27.78
27840;BME280;15207;42.182;24.308;2023-04-07T11:34:30;99006.31;;;16.05;27.35
27840;BME280;15207;42.182;24.308;2023-04-07T11:36:56;99009.59;;;15.56;27.79
27840;BME280;15207;42.182;24.308;2023-04-07T11:39:25;99008.59;;;15.22;27.58
27840;BME280;15207;42.182;24.308;2023-04-07T11:41:56;99007.13;;;15.28;28.88
27840;BME280;15207;42.182;24.308;2023-04-07T11:44:22;99011.09;;;14.97;29.18
27840;BME280;15207;42.182;24.308;2023-04-07T11:46:59;99003.81;;;14.89;29.49
27840;BME280;15207;42.182;24.308;2023-04-07T11:49:26;99006.06;;;14.94;29.47
27840;BME280;15207;42.182;24.308;2023-04-07T11:52:02;99003.16;;;14.96;29.83
27840;BME280;15207;42.182;24.308;2023-04-07T11:54:41;99003.09;;;15.32;28.70
27840;BME280;15207;42.182;24.308;2023-04-07T11:57:07;98996.78;;;15.23;28.70
27840;BME280;15207;42.182;24.308;2023-04-07T11:59:39;98987.34;;;15.19;29.69
27840;BME280;15207;42.182;24.308;2023-04-07T12:02:05;99000.25;;;15.07;29.80
27840;BME280;15207;42.182;24.308;2023-04-07T12:04:32;98999.03;;;15.36;30.13
27840;BME280;15207;42.182;24.308;2023-04-07T12:07:07;98985.31;;;15.47;29.79
27840;BME280;15207;42.182;24.308;2023-04-07T12:09:34;98991.38;;;15.50;29.06
27840;BME280;15207;42.182;24.308;2023-04-07T12:12:03;98996.63;;;14.98;29.92
27840;BME280;15207;42.182;24.308;2023-04-07T12:14:33;98997.31;;;15.00;30.43
27840;BME280;15207;42.182;24.308;2023-04-07T12:16:59;99001.22;;;15.32;29.55
27840;BME280;15207;42.182;24.308;2023-04-07T12:19:29;98994.78;;;15.52;29.91
27840;BME280;15207;42.182;24.308;2023-04-07T12:21:57;98996.97;;;15.22;29.03
27840;BME280;15207;42.182;24.308;2023-04-07T12:24:23;98988.91;;;14.77;29.69
27840;BME280;15207;42.182;24.308;2023-04-07T12:26:49;98993.63;;;15.01;29.28
27840;BME280;15207;42.182;24.308;2023-04-07T12:29:17;98989.69;;;15.14;28.91
27840;BME280;15207;42.182;24.308;2023-04-07T12:31:44;98989.69;;;15.14;29.48
27840;BME280;15207;42.182;24.308;2023-04-07T12:34:10;98991.22;;;15.16;28.95
27840;BME280;15207;42.182;24.308;2023-04-07T12:36:36;98994.13;;;15.05;29.33
27840;BME280;15207;42.182;24.308;2023-04-07T12:39:01;98993.84;;;15.08;29.01
27840;BME280;15207;42.182;24.308;2023-04-07T12:41:27;98984.16;;;15.24;28.88
27840;BME280;15207;42.182;24.308;2023-04-07T12:43:53;98982.34;;;15.67;28.54
27840;BME280;15207;42.182;24.308;2023-04-07T12:46:19;98984.50;;;15.98;28.08
27840;BME280;15207;42.182;24.308;2023-04-07T12:48:45;98979.66;;;16.19;27.96
27840;BME280;15207;42.182;24.308;2023-04-07T12:51:12;98975.97;;;16.20;27.56
27840;BME280;15207;42.182;24.308;2023-04-07T12:53:37;98974.56;;;16.07;27.74
27840;BME280;15207;42.182;24.308;2023-04-07T12:56:03;98966.94;;;15.94;27.42
27840;BME280;15207;42.182;24.308;2023-04-07T12:58:29;98989.28;;;16.13;28.55
27840;BME280;15207;42.182;24.308;2023-04-07T13:00:55;98976.56;;;15.97;29.23
27840;BME280;15207;42.182;24.308;2023-04-07T13:03:21;98975.78;;;16.21;28.91
27840;BME280;15207;42.182;24.308;2023-04-07T13:05:47;98979.47;;;16.04;29.31
27840;BME280;15207;42.182;24.308;2023-04-07T13:08:12;98969.69;;;15.68;29.88
27840;BME280;15207;42.182;24.308;2023-04-07T13:10:38;98979.56;;;15.51;29.19
27840;BME280;15207;42.182;24.308;2023-04-07T13:13:03;98967.44;;;14.93;30.05
27840;BME280;15207;42.182;24.308;2023-04-07T13:15:29;98974.94;;;14.81;30.66